sensor_id;sensor_type;location;lat;lon;timestamp;pressure;altitude;pressure_sealevel;temperature;humidity
54900;BME280;40801;41.924;25.562;2023-03-14T00:01:21;100000.41;;;3.10;50.47
54900;BME280;40801;41.924;25.562;2023-03-14T00:03:47;99993.16;;;3.06;50.66
54900;BME280;40801;41.924;25.562;2023-03-14T00:06:13;99983.75;;;2.87;50.52
54900;BME280;40801;41.924;25.562;2023-03-14T00:08:40;99983.16;;;2.85;51.07
54900;BME280;40801;41.924;25.562;2023-03-14T00:11:07;99972.44;;;2.79;51.28
54900;BME280;40801;41.924;25.562;2023-03-14T00:13:33;99968.69;;;2.92;50.61
54900;BME280;40801;41.924;25.562;2023-03-14T00:16:03;99970.53;;;2.92;51.37
54900;BME280;40801;41.924;25.562;2023-03-14T00:18:29;99967.69;;;2.82;50.99
54900;BME280;40801;41.924;25.562;2023-03-14T00:20:57;99967.03;;;2.74;51.51
54900;BME280;40801;41.924;25.562;2023-03-14T00:23:23;99973.56;;;2.84;50.05
54900;BME280;40801;41.924;25.562;2023-03-14T00:25:48;99970.72;;;2.73;51.56
54900;BME280;40801;41.924;25.562;2023-03-14T00:28:14;99977.47;;;2.93;49.55
54900;BME280;40801;41.924;25.562;2023-03-14T00:30:39;99981.28;;;2.97;49.58
54900;BME280;40801;41.924;25.562;2023-03-14T00:33:04;99976.09;;;2.90;50.13
54900;BME280;40801;41.924;25.562;2023-03-14T00:35:30;99974.94;;;2.86;50.56
54900;BME280;40801;41.924;25.562;2023-03-14T00:37:55;99970.09;;;2.83;50.74
54900;BME280;40801;41.924;25.562;2023-03-14T00:40:20;99970.41;;;2.87;50.94
54900;BME280;40801;41.924;25.562;2023-03-14T00:42:46;99957.75;;;2.77;51.14
54900;BME280;40801;41.924;25.562;2023-03-14T00:45:11;99964.84;;;2.71;51.27
54900;BME280;40801;41.924;25.562;2023-03-14T00:47:37;99954.19;;;2.71;50.93
54900;BME280;40801;41.924;25.562;2023-03-14T00:50:02;99958.75;;;2.59;51.99
54900;BME280;40801;41.924;25.562;2023-03-14T00:52:28;99954.75;;;2.45;51.49
54900;BME280;40801;41.924;25.562;2023-03-14T00:54:53;99954.81;;;2.33;52.58
54900;BME280;40801;41.924;25.562;2023-03-14T00:57:18;99955.63;;;2.34;52.47
54900;BME280;40801;41.924;25.562;2023-03-14T00:59:44;99949.94;;;2.30;52.23
54900;BME280;40801;41.924;25.562;2023-03-14T01:02:09;99943.94;;;2.23;52.52
54900;BME280;40801;41.924;25.562;2023-03-14T01:04:35;99934.63;;;2.09;52.52
54900;BME280;40801;41.924;25.562;2023-03-14T01:07:01;99937.53;;;2.07;52.72
54900;BME280;40801;41.924;25.562;2023-03-14T01:09:27;99929.41;;;2.02;53.03
54900;BME280;40801;41.924;25.562;2023-03-14T01:11:52;99934.28;;;2.05;52.93
54900;BME280;40801;41.924;25.562;2023-03-14T01:14:18;99923.41;;;2.07;53.02
54900;BME280;40801;41.924;25.562;2023-03-14T01:16:43;99936.94;;;2.05;52.86
54900;BME280;40801;41.924;25.562;2023-03-14T01:19:09;99936.47;;;2.08;52.20
54900;BME280;40801;41.924;25.562;2023-03-14T01:21:35;99928.13;;;2.16;52.45
54900;BME280;40801;41.924;25.562;2023-03-14T01:24:02;99930.34;;;2.08;52.54
54900;BME280;40801;41.924;25.562;2023-03-14T01:26:30;99926.56;;;2.04;53.33
54900;BME280;40801;41.924;25.562;2023-03-14T01:28:56;99922.94;;;2.10;52.25
54900;BME280;40801;41.924;25.562;2023-03-14T01:31:23;99922.72;;;2.00;53.01
54900;BME280;40801;41.924;25.562;2023-03-14T01:33:49;99924.59;;;1.88;53.46
54900;BME280;40801;41.924;25.562;2023-03-14T01:36:15;99917.69;;;1.86;53.49
54900;BME280;40801;41.924;25.562;2023-03-14T01:38:41;99922.53;;;1.90;53.27
54900;BME280;40801;41.924;25.562;2023-03-14T01:41:09;99914.53;;;1.90;53.35
54900;BME280;40801;41.924;25.562;2023-03-14T01:43:36;99908.56;;;1.82;53.28
54900;BME280;40801;41.924;25.562;2023-03-14T01:48:53;99912.97;;;1.77;54.86
54900;BME280;40801;41.924;25.562;2023-03-14T01:51:22;99906.59;;;1.78;53.32
54900;BME280;40801;41.924;25.562;2023-03-14T01:53:50;99909.03;;;1.79;53.46
54900;BME280;40801;41.924;25.562;2023-03-14T01:56:18;99902.91;;;1.79;53.38
54900;BME280;40801;41.924;25.562;2023-03-14T01:58:46;99899.53;;;1.72;54.08
54900;BME280;40801;41.924;25.562;2023-03-14T02:01:14;99893.88;;;1.68;54.34
54900;BME280;40801;41.924;25.562;2023-03-14T02:03:54;99897.59;;;1.67;55.15
54900;BME280;40801;41.924;25.562;2023-03-14T02:06:24;99892.38;;;1.72;54.19
54900;BME280;40801;41.924;25.562;2023-03-14T02:08:51;99894.34;;;1.65;53.46
54900;BME280;40801;41.924;25.562;2023-03-14T02:11:18;99891.47;;;1.67;53.38
54900;BME280;40801;41.924;25.562;2023-03-14T02:13:44;99892.63;;;1.59;53.81
54900;BME280;40801;41.924;25.562;2023-03-14T02:16:10;99903.13;;;1.66;53.65
54900;BME280;40801;41.924;25.562;2023-03-14T02:18:36;99902.22;;;1.60;53.54
54900;BME280;40801;41.924;25.562;2023-03-14T02:24:09;99908.25;;;1.55;55.54
54900;BME280;40801;41.924;25.562;2023-03-14T02:27:14;99906.38;;;1.56;54.73
54900;BME280;40801;41.924;25.562;2023-03-14T02:30:10;99910.91;;;1.55;54.92
54900;BME280;40801;41.924;25.562;2023-03-14T02:32:39;99904.31;;;1.58;54.18
54900;BME280;40801;41.924;25.562;2023-03-14T02:35:11;99915.63;;;1.53;54.03
54900;BME280;40801;41.924;25.562;2023-03-14T02:37:52;99909.41;;;1.48;55.05
54900;BME280;40801;41.924;25.562;2023-03-14T02:40:18;99899.94;;;1.52;53.74
54900;BME280;40801;41.924;25.562;2023-03-14T02:42:43;99907.66;;;1.53;54.03
54900;BME280;40801;41.924;25.562;2023-03-14T02:47:39;99902.81;;;1.39;54.79
54900;BME280;40801;41.924;25.562;2023-03-14T02:50:13;99900.88;;;1.46;54.96
54900;BME280;40801;41.924;25.562;2023-03-14T02:52:40;99897.25;;;1.40;54.31
54900;BME280;40801;41.924;25.562;2023-03-14T02:55:05;99895.88;;;1.38;54.29
54900;BME280;40801;41.924;25.562;2023-03-14T02:57:31;99901.31;;;1.31;54.72
54900;BME280;40801;41.924;25.562;2023-03-14T03:00:00;99898.31;;;1.28;54.97
54900;BME280;40801;41.924;25.562;2023-03-14T03:02:27;99900.97;;;1.28;54.34
54900;BME280;40801;41.924;25.562;2023-03-14T03:04:52;99879.84;;;1.21;54.73
54900;BME280;40801;41.924;25.562;2023-03-14T03:07:18;99888.84;;;1.20;54.68
54900;BME280;40801;41.924;25.562;2023-03-14T03:09:44;99885.63;;;1.18;54.90
54900;BME280;40801;41.924;25.562;2023-03-14T03:12:09;99898.53;;;1.26;54.82
54900;BME280;40801;41.924;25.562;2023-03-14T03:14:35;99883.78;;;1.18;54.97
54900;BME280;40801;41.924;25.562;2023-03-14T03:17:00;99888.84;;;1.20;54.72
54900;BME280;40801;41.924;25.562;2023-03-14T03:19:26;99884.56;;;1.19;54.73
54900;BME280;40801;41.924;25.562;2023-03-14T03:21:51;99891.97;;;1.17;54.89
54900;BME280;40801;41.924;25.562;2023-03-14T03:24:16;99882.38;;;1.16;54.65
54900;BME280;40801;41.924;25.562;2023-03-14T03:26:42;99877.06;;;1.16;54.47
54900;BME280;40801;41.924;25.562;2023-03-14T03:29:07;99885.97;;;1.21;54.64
54900;BME280;40801;41.924;25.562;2023-03-14T03:31:33;99880.88;;;1.20;54.35
54900;BME280;40801;41.924;25.562;2023-03-14T03:33:58;99880.16;;;1.13;54.75
54900;BME280;40801;41.924;25.562;2023-03-14T03:36:25;99882.72;;;1.08;54.91
54900;BME280;40801;41.924;25.562;2023-03-14T03:38:50;99882.94;;;1.06;55.17
54900;BME280;40801;41.924;25.562;2023-03-14T03:41:16;99886.06;;;1.03;54.79
54900;BME280;40801;41.924;25.562;2023-03-14T03:43:41;99888.38;;;1.00;54.97
54900;BME280;40801;41.924;25.562;2023-03-14T03:46:07;99891.59;;;0.90;55.15
54900;BME280;40801;41.924;25.562;2023-03-14T03:48:34;99901.84;;;0.86;55.38
54900;BME280;40801;41.924;25.562;2023-03-14T03:50:59;99905.97;;;0.71;55.48
54900;BME280;40801;41.924;25.562;2023-03-14T03:53:25;99897.44;;;0.69;55.65
54900;BME280;40801;41.924;25.562;2023-03-14T03:55:50;99899.16;;;0.75;55.03
54900;BME280;40801;41.924;25.562;2023-03-14T03:58:16;99898.03;;;0.82;54.98
54900;BME280;40801;41.924;25.562;2023-03-14T04:00:41;99889.59;;;0.85;54.98
54900;BME280;40801;41.924;25.562;2023-03-14T04:03:06;99886.38;;;0.83;54.96
54900;BME280;40801;41.924;25.562;2023-03-14T04:05:32;99886.25;;;0.78;55.28
54900;BME280;40801;41.924;25.562;2023-03-14T04:07:59;99897.44;;;0.80;55.15
54900;BME280;40801;41.924;25.562;2023-03-14T04:10:25;99893.53;;;0.83;55.33
54900;BME280;40801;41.924;25.562;2023-03-14T04:12:50;99886.75;;;0.87;55.04
54900;BME280;40801;41.924;25.562;2023-03-14T04:15:15;99899.34;;;0.91;54.78
54900;BME280;40801;41.924;25.562;2023-03-14T04:17:41;99905.22;;;0.93;54.95
54900;BME280;40801;41.924;25.562;2023-03-14T04:20:07;99896.53;;;0.86;55.13
54900;BME280;40801;41.924;25.562;2023-03-14T04:22:36;99896.91;;;0.90;54.96
54900;BME280;40801;41.924;25.562;2023-03-14T04:25:01;99901.41;;;0.89;55.01
54900;BME280;40801;41.924;25.562;2023-03-14T04:27:28;99893.69;;;0.88;54.93
54900;BME280;40801;41.924;25.562;2023-03-14T04:29:54;99905.75;;;0.84;55.30
54900;BME280;40801;41.924;25.562;2023-03-14T04:32:19;99904.50;;;0.86;55.28
54900;BME280;40801;41.924;25.562;2023-03-14T04:34:45;99905.09;;;0.88;55.19
54900;BME280;40801;41.924;25.562;2023-03-14T04:37:10;99907.25;;;0.80;55.32
54900;BME280;40801;41.924;25.562;2023-03-14T04:39:36;99902.97;;;0.79;54.98
54900;BME280;40801;41.924;25.562;2023-03-14T04:42:01;99899.28;;;0.80;55.04
54900;BME280;40801;41.924;25.562;2023-03-14T04:44:27;99894.66;;;0.75;55.35
54900;BME280;40801;41.924;25.562;2023-03-14T04:46:52;99896.75;;;0.73;55.57
54900;BME280;40801;41.924;25.562;2023-03-14T04:49:18;99892.13;;;0.80;55.30
54900;BME280;40801;41.924;25.562;2023-03-14T04:51:43;99889.59;;;0.85;54.75
54900;BME280;40801;41.924;25.562;2023-03-14T04:54:09;99896.06;;;0.78;55.24
54900;BME280;40801;41.924;25.562;2023-03-14T04:56:34;99895.81;;;0.79;55.31
54900;BME280;40801;41.924;25.562;2023-03-14T04:58:59;99892.94;;;0.81;54.89
54900;BME280;40801;41.924;25.562;2023-03-14T05:01:25;99898.53;;;0.91;55.00
54900;BME280;40801;41.924;25.562;2023-03-14T05:03:50;99885.81;;;0.93;54.99
54900;BME280;40801;41.924;25.562;2023-03-14T05:06:16;99885.47;;;1.01;55.07
54900;BME280;40801;41.924;25.562;2023-03-14T05:08:41;99894.38;;;0.95;55.30
54900;BME280;40801;41.924;25.562;2023-03-14T05:11:09;99895.28;;;0.89;55.81
54900;BME280;40801;41.924;25.562;2023-03-14T05:13:35;99898.63;;;0.96;55.42
54900;BME280;40801;41.924;25.562;2023-03-14T05:16:09;99891.13;;;1.05;55.27
54900;BME280;40801;41.924;25.562;2023-03-14T05:18:35;99885.97;;;1.21;54.13
54900;BME280;40801;41.924;25.562;2023-03-14T05:21:01;99884.56;;;1.31;54.23
54900;BME280;40801;41.924;25.562;2023-03-14T05:23:26;99891.38;;;1.38;54.20
54900;BME280;40801;41.924;25.562;2023-03-14T05:25:52;99891.16;;;1.51;53.67
54900;BME280;40801;41.924;25.562;2023-03-14T05:28:18;99888.34;;;1.58;53.68
54900;BME280;40801;41.924;25.562;2023-03-14T05:30:43;99893.88;;;1.68;53.81
54900;BME280;40801;41.924;25.562;2023-03-14T05:33:09;99883.47;;;1.78;53.07
54900;BME280;40801;41.924;25.562;2023-03-14T05:35:34;99891.75;;;1.94;52.94
54900;BME280;40801;41.924;25.562;2023-03-14T05:37:59;99885.97;;;1.97;53.38
54900;BME280;40801;41.924;25.562;2023-03-14T05:40:25;99890.22;;;1.98;53.75
54900;BME280;40801;41.924;25.562;2023-03-14T05:42:50;99887.56;;;1.98;53.73
54900;BME280;40801;41.924;25.562;2023-03-14T05:45:16;99880.53;;;2.03;53.46
54900;BME280;40801;41.924;25.562;2023-03-14T05:47:41;99884.19;;;2.14;53.72
54900;BME280;40801;41.924;25.562;2023-03-14T05:50:07;99884.59;;;2.23;53.65
54900;BME280;40801;41.924;25.562;2023-03-14T05:52:33;99879.56;;;2.38;53.81
54900;BME280;40801;41.924;25.562;2023-03-14T05:54:58;99870.00;;;2.54;53.44
54900;BME280;40801;41.924;25.562;2023-03-14T05:57:24;99874.31;;;2.71;52.74
54900;BME280;40801;41.924;25.562;2023-03-14T05:59:49;99870.09;;;2.75;53.90
54900;BME280;40801;41.924;25.562;2023-03-14T06:02:14;99860.88;;;3.17;54.21
54900;BME280;40801;41.924;25.562;2023-03-14T06:04:40;99866.47;;;3.76;53.94
54900;BME280;40801;41.924;25.562;2023-03-14T06:07:05;99868.28;;;4.41;52.72
54900;BME280;40801;41.924;25.562;2023-03-14T06:09:31;99859.06;;;4.85;51.64
54900;BME280;40801;41.924;25.562;2023-03-14T06:11:56;99855.19;;;5.45;50.84
54900;BME280;40801;41.924;25.562;2023-03-14T06:14:21;99851.53;;;6.19;49.90
54900;BME280;40801;41.924;25.562;2023-03-14T06:16:47;99852.66;;;6.48;49.01
54900;BME280;40801;41.924;25.562;2023-03-14T06:19:16;99847.84;;;6.91;48.23
54900;BME280;40801;41.924;25.562;2023-03-14T06:21:42;99845.41;;;7.25;47.28
54900;BME280;40801;41.924;25.562;2023-03-14T06:24:07;99847.16;;;7.70;46.55
54900;BME280;40801;41.924;25.562;2023-03-14T06:26:33;99852.16;;;7.97;45.33
54900;BME280;40801;41.924;25.562;2023-03-14T06:28:58;99852.50;;;8.40;45.34
54900;BME280;40801;41.924;25.562;2023-03-14T06:31:31;99848.19;;;8.78;44.07
54900;BME280;40801;41.924;25.562;2023-03-14T06:33:56;99845.47;;;9.12;43.67
54900;BME280;40801;41.924;25.562;2023-03-14T06:36:22;99850.31;;;9.10;42.82
54900;BME280;40801;41.924;25.562;2023-03-14T06:38:47;99847.19;;;9.56;42.08
54900;BME280;40801;41.924;25.562;2023-03-14T06:41:13;99843.34;;;9.86;40.54
54900;BME280;40801;41.924;25.562;2023-03-14T06:43:38;99851.78;;;10.22;39.46
54900;BME280;40801;41.924;25.562;2023-03-14T06:46:04;99854.88;;;10.85;39.22
54900;BME280;40801;41.924;25.562;2023-03-14T06:48:29;99846.91;;;10.94;38.74
54900;BME280;40801;41.924;25.562;2023-03-14T06:50:55;99849.59;;;11.40;37.93
54900;BME280;40801;41.924;25.562;2023-03-14T06:53:20;99847.25;;;11.06;37.28
54900;BME280;40801;41.924;25.562;2023-03-14T06:55:46;99847.59;;;11.46;37.04
54900;BME280;40801;41.924;25.562;2023-03-14T06:58:11;99849.91;;;11.39;35.10
54900;BME280;40801;41.924;25.562;2023-03-14T07:00:37;99847.59;;;11.46;35.84
54900;BME280;40801;41.924;25.562;2023-03-14T07:03:02;99847.66;;;11.87;35.46
54900;BME280;40801;41.924;25.562;2023-03-14T07:05:28;99840.63;;;12.00;35.36
54900;BME280;40801;41.924;25.562;2023-03-14T07:07:53;99838.78;;;12.59;35.03
54900;BME280;40801;41.924;25.562;2023-03-14T07:10:19;99834.03;;;12.87;34.75
54900;BME280;40801;41.924;25.562;2023-03-14T07:12:44;99835.06;;;12.99;34.54
54900;BME280;40801;41.924;25.562;2023-03-14T07:15:10;99839.50;;;12.95;34.52
54900;BME280;40801;41.924;25.562;2023-03-14T07:17:35;99835.06;;;12.99;34.06
54900;BME280;40801;41.924;25.562;2023-03-14T07:20:01;99834.09;;;13.18;33.72
54900;BME280;40801;41.924;25.562;2023-03-14T07:22:27;99829.66;;;13.22;34.36
54900;BME280;40801;41.924;25.562;2023-03-14T07:24:53;99830.09;;;13.46;33.65
54900;BME280;40801;41.924;25.562;2023-03-14T07:27:18;99821.84;;;14.25;33.00
54900;BME280;40801;41.924;25.562;2023-03-14T07:29:43;99832.06;;;14.29;32.13
54900;BME280;40801;41.924;25.562;2023-03-14T07:32:09;99818.16;;;14.73;32.11
54900;BME280;40801;41.924;25.562;2023-03-14T07:34:34;99814.66;;;14.73;31.37
54900;BME280;40801;41.924;25.562;2023-03-14T07:37:00;99819.72;;;15.00;31.03
54900;BME280;40801;41.924;25.562;2023-03-14T07:39:25;99809.84;;;14.87;30.92
54900;BME280;40801;41.924;25.562;2023-03-14T07:41:51;99813.56;;;15.38;30.70
54900;BME280;40801;41.924;25.562;2023-03-14T07:44:16;99811.91;;;14.99;30.78
54900;BME280;40801;41.924;25.562;2023-03-14T07:46:41;99806.00;;;15.43;30.29
54900;BME280;40801;41.924;25.562;2023-03-14T07:49:07;99807.25;;;15.08;30.36
54900;BME280;40801;41.924;25.562;2023-03-14T07:51:32;99796.34;;;15.93;29.50
54900;BME280;40801;41.924;25.562;2023-03-14T07:53:58;99798.53;;;15.99;29.58
54900;BME280;40801;41.924;25.562;2023-03-14T07:56:23;99796.78;;;15.36;29.07
54900;BME280;40801;41.924;25.562;2023-03-14T07:58:49;99797.69;;;16.07;28.89
54900;BME280;40801;41.924;25.562;2023-03-14T08:01:14;99804.38;;;16.72;28.25
54900;BME280;40801;41.924;25.562;2023-03-14T08:03:39;99794.31;;;16.85;28.23
54900;BME280;40801;41.924;25.562;2023-03-14T08:06:05;99791.75;;;16.68;28.39
54900;BME280;40801;41.924;25.562;2023-03-14T08:08:31;99792.69;;;17.29;27.98
54900;BME280;40801;41.924;25.562;2023-03-14T08:11:02;99778.63;;;17.88;26.32
54900;BME280;40801;41.924;25.562;2023-03-14T08:13:28;99775.72;;;18.21;27.18
54900;BME280;40801;41.924;25.562;2023-03-14T08:15:53;99766.69;;;18.61;26.37
54900;BME280;40801;41.924;25.562;2023-03-14T08:18:19;99772.19;;;19.21;25.83
54900;BME280;40801;41.924;25.562;2023-03-14T08:20:44;99762.47;;;19.07;25.77
54900;BME280;40801;41.924;25.562;2023-03-14T08:23:09;99751.34;;;19.47;25.47
54900;BME280;40801;41.924;25.562;2023-03-14T08:25:35;99747.66;;;19.40;25.30
54900;BME280;40801;41.924;25.562;2023-03-14T08:28:00;99748.75;;;19.86;25.19
54900;BME280;40801;41.924;25.562;2023-03-14T08:30:26;99746.28;;;19.81;25.00
54900;BME280;40801;41.924;25.562;2023-03-14T08:32:51;99739.69;;;20.21;24.39
54900;BME280;40801;41.924;25.562;2023-03-14T08:35:17;99738.19;;;20.42;23.76
54900;BME280;40801;41.924;25.562;2023-03-14T08:37:42;99737.59;;;20.33;23.67
54900;BME280;40801;41.924;25.562;2023-03-14T08:40:08;99728.66;;;19.98;24.13
54900;BME280;40801;41.924;25.562;2023-03-14T08:42:36;99728.41;;;20.41;23.43
54900;BME280;40801;41.924;25.562;2023-03-14T08:45:01;99726.25;;;20.73;22.83
54900;BME280;40801;41.924;25.562;2023-03-14T08:47:27;99731.47;;;21.24;21.78
54900;BME280;40801;41.924;25.562;2023-03-14T08:49:53;99721.75;;;21.30;21.28
54900;BME280;40801;41.924;25.562;2023-03-14T08:52:18;99719.44;;;21.85;20.71
54900;BME280;40801;41.924;25.562;2023-03-14T08:54:44;99724.03;;;21.25;21.20
54900;BME280;40801;41.924;25.562;2023-03-14T08:57:09;99722.00;;;21.22;20.51
54900;BME280;40801;41.924;25.562;2023-03-14T08:59:35;99710.75;;;21.53;19.32
54900;BME280;40801;41.924;25.562;2023-03-14T09:02:01;99710.84;;;21.90;19.09
54900;BME280;40801;41.924;25.562;2023-03-14T09:04:29;99693.63;;;22.23;19.40
54900;BME280;40801;41.924;25.562;2023-03-14T09:06:54;99699.59;;;22.29;19.80
54900;BME280;40801;41.924;25.562;2023-03-14T09:09:20;99702.41;;;22.73;19.91
54900;BME280;40801;41.924;25.562;2023-03-14T09:11:45;99699.69;;;22.77;19.46
54900;BME280;40801;41.924;25.562;2023-03-14T09:14:10;99690.63;;;22.02;20.15
54900;BME280;40801;41.924;25.562;2023-03-14T09:16:36;99689.78;;;21.98;20.00
54900;BME280;40801;41.924;25.562;2023-03-14T09:19:01;99684.72;;;22.00;19.64
54900;BME280;40801;41.924;25.562;2023-03-14T09:21:27;99682.03;;;22.37;19.60
54900;BME280;40801;41.924;25.562;2023-03-14T09:23:52;99679.03;;;22.53;19.79
54900;BME280;40801;41.924;25.562;2023-03-14T09:26:18;99678.09;;;22.79;19.83
54900;BME280;40801;41.924;25.562;2023-03-14T09:28:43;99676.34;;;22.97;19.05
54900;BME280;40801;41.924;25.562;2023-03-14T09:31:11;99665.06;;;22.69;18.55
54900;BME280;40801;41.924;25.562;2023-03-14T09:33:37;99658.63;;;23.53;17.65
54900;BME280;40801;41.924;25.562;2023-03-14T09:36:03;99657.91;;;23.56;17.08
54900;BME280;40801;41.924;25.562;2023-03-14T09:38:29;99651.72;;;23.81;17.24
54900;BME280;40801;41.924;25.562;2023-03-14T09:40:54;99648.88;;;23.66;17.39
54900;BME280;40801;41.924;25.562;2023-03-14T09:43:24;99644.78;;;24.26;17.07
54900;BME280;40801;41.924;25.562;2023-03-14T09:45:50;99639.97;;;23.98;16.65
54900;BME280;40801;41.924;25.562;2023-03-14T09:48:21;99627.53;;;24.36;16.06
54900;BME280;40801;41.924;25.562;2023-03-14T09:50:51;99625.19;;;24.66;15.32
54900;BME280;40801;41.924;25.562;2023-03-14T09:53:27;99624.78;;;25.14;14.46
54900;BME280;40801;41.924;25.562;2023-03-14T09:55:54;99621.88;;;25.82;14.83
54900;BME280;40801;41.924;25.562;2023-03-14T09:58:22;99621.59;;;25.37;14.85
54900;BME280;40801;41.924;25.562;2023-03-14T10:00:49;99614.06;;;25.41;14.74
54900;BME280;40801;41.924;25.562;2023-03-14T10:03:34;99604.38;;;25.99;14.35
54900;BME280;40801;41.924;25.562;2023-03-14T10:06:00;99609.66;;;25.76;14.49
54900;BME280;40801;41.924;25.562;2023-03-14T10:08:26;99603.75;;;25.67;14.59
54900;BME280;40801;41.924;25.562;2023-03-14T10:10:52;99595.22;;;25.22;14.87
54900;BME280;40801;41.924;25.562;2023-03-14T10:18:25;99582.63;;;26.67;14.56
54900;BME280;40801;41.924;25.562;2023-03-14T10:23:29;99576.50;;;26.86;15.03
54900;BME280;40801;41.924;25.562;2023-03-14T10:26:16;99578.22;;;26.73;14.53
54900;BME280;40801;41.924;25.562;2023-03-14T10:31:09;99565.03;;;26.88;15.13
54900;BME280;40801;41.924;25.562;2023-03-14T10:33:37;99551.47;;;27.04;14.80
54900;BME280;40801;41.924;25.562;2023-03-14T10:36:06;99549.38;;;27.50;14.76
54900;BME280;40801;41.924;25.562;2023-03-14T10:38:40;99545.88;;;28.03;14.61
54900;BME280;40801;41.924;25.562;2023-03-14T10:41:17;99544.44;;;27.64;14.46
54900;BME280;40801;41.924;25.562;2023-03-14T10:43:44;99537.00;;;27.58;15.05
54900;BME280;40801;41.924;25.562;2023-03-14T10:46:16;99517.94;;;27.63;14.08
54900;BME280;40801;41.924;25.562;2023-03-14T10:48:42;99509.75;;;28.10;14.09
54900;BME280;40801;41.924;25.562;2023-03-14T10:51:29;99506.28;;;27.75;14.36
54900;BME280;40801;41.924;25.562;2023-03-14T10:54:01;99494.53;;;27.68;14.61
54900;BME280;40801;41.924;25.562;2023-03-14T10:56:36;99489.81;;;27.92;14.49
54900;BME280;40801;41.924;25.562;2023-03-14T10:59:04;99468.38;;;27.96;14.94
54900;BME280;40801;41.924;25.562;2023-03-14T11:01:53;99472.09;;;27.86;14.29
54900;BME280;40801;41.924;25.562;2023-03-14T11:07:39;99449.47;;;28.14;14.47
54900;BME280;40801;41.924;25.562;2023-03-14T11:12:57;99440.56;;;28.69;14.68
54900;BME280;40801;41.924;25.562;2023-03-14T11:15:57;99435.06;;;28.46;14.50
54900;BME280;40801;41.924;25.562;2023-03-14T11:21:14;99416.34;;;28.50;14.75
54900;BME280;40801;41.924;25.562;2023-03-14T11:29:26;99387.28;;;28.98;14.57
54900;BME280;40801;41.924;25.562;2023-03-14T11:31:55;99378.78;;;29.05;14.75
54900;BME280;40801;41.924;25.562;2023-03-14T11:34:28;99370.00;;;29.43;13.24
54900;BME280;40801;41.924;25.562;2023-03-14T11:37:07;99364.28;;;28.97;13.57
54900;BME280;40801;41.924;25.562;2023-03-14T11:39:45;99355.03;;;29.56;13.09
54900;BME280;40801;41.924;25.562;2023-03-14T11:42:16;99351.81;;;29.74;11.22
54900;BME280;40801;41.924;25.562;2023-03-14T11:44:46;99346.88;;;29.66;12.35
54900;BME280;40801;41.924;25.562;2023-03-14T11:47:20;99340.19;;;29.63;12.35
54900;BME280;40801;41.924;25.562;2023-03-14T11:50:15;99332.34;;;29.90;12.37
54900;BME280;40801;41.924;25.562;2023-03-14T11:52:48;99330.34;;;30.07;13.02
54900;BME280;40801;41.924;25.562;2023-03-14T11:55:19;99327.91;;;30.09;12.53
54900;BME280;40801;41.924;25.562;2023-03-14T11:57:47;99312.44;;;29.92;12.93
54900;BME280;40801;41.924;25.562;2023-03-14T12:00:21;99311.66;;;30.78;11.50
54900;BME280;40801;41.924;25.562;2023-03-14T12:10:58;99277.91;;;30.35;10.34
54900;BME280;40801;41.924;25.562;2023-03-14T12:13:29;99282.19;;;30.10;11.66
54900;BME280;40801;41.924;25.562;2023-03-14T12:15:58;99276.63;;;29.94;11.27
54900;BME280;40801;41.924;25.562;2023-03-14T12:18:35;99271.91;;;29.62;10.54
54900;BME280;40801;41.924;25.562;2023-03-14T12:21:07;99272.63;;;29.95;11.20
54900;BME280;40801;41.924;25.562;2023-03-14T12:24:03;99261.72;;;30.17;9.72
54900;BME280;40801;41.924;25.562;2023-03-14T12:26:46;99257.59;;;29.92;9.39
54900;BME280;40801;41.924;25.562;2023-03-14T12:29:17;99251.16;;;29.96;9.64
54900;BME280;40801;41.924;25.562;2023-03-14T12:31:43;99245.50;;;29.38;9.90
54900;BME280;40801;41.924;25.562;2023-03-14T12:41:52;99232.16;;;29.00;9.70
54900;BME280;40801;41.924;25.562;2023-03-14T12:46:59;99213.44;;;29.95;9.83
54900;BME280;40801;41.924;25.562;2023-03-14T12:49:30;99212.72;;;30.07;9.71
54900;BME280;40801;41.924;25.562;2023-03-14T12:52:00;99210.66;;;30.11;10.96
54900;BME280;40801;41.924;25.562;2023-03-14T12:54:48;99204.97;;;30.69;9.42
54900;BME280;40801;41.924;25.562;2023-03-14T13:00:21;99192.22;;;30.93;10.05
54900;BME280;40801;41.924;25.562;2023-03-14T13:02:48;99187.44;;;30.56;10.15
54900;BME280;40801;41.924;25.562;2023-03-14T13:15:40;99162.16;;;30.12;11.06
54900;BME280;40801;41.924;25.562;2023-03-14T13:18:12;99152.13;;;30.27;10.54
54900;BME280;40801;41.924;25.562;2023-03-14T13:20:44;99150.91;;;30.15;10.28
54900;BME280;40801;41.924;25.562;2023-03-14T13:23:30;99147.25;;;30.57;10.41
54900;BME280;40801;41.924;25.562;2023-03-14T13:25:57;99136.03;;;30.60;10.91
54900;BME280;40801;41.924;25.562;2023-03-14T13:28:24;99134.00;;;30.86;10.64
54900;BME280;40801;41.924;25.562;2023-03-14T13:30:55;99133.91;;;30.64;10.46
54900;BME280;40801;41.924;25.562;2023-03-14T13:33:22;99127.31;;;30.33;10.79
54900;BME280;40801;41.924;25.562;2023-03-14T13:35:54;99126.09;;;30.59;10.53
54900;BME280;40801;41.924;25.562;2023-03-14T13:38:28;99110.41;;;30.52;10.22
54900;BME280;40801;41.924;25.562;2023-03-14T13:40:55;99109.13;;;31.04;10.34
54900;BME280;40801;41.924;25.562;2023-03-14T13:43:31;99098.56;;;29.98;10.24
54900;BME280;40801;41.924;25.562;2023-03-14T13:48:28;99101.94;;;30.81;9.96
54900;BME280;40801;41.924;25.562;2023-03-14T13:51:05;99095.81;;;30.61;9.90
54900;BME280;40801;41.924;25.562;2023-03-14T13:53:33;99090.47;;;30.29;10.38
54900;BME280;40801;41.924;25.562;2023-03-14T13:56:09;99090.25;;;30.23;9.80
54900;BME280;40801;41.924;25.562;2023-03-14T13:58:37;99083.97;;;29.94;10.08
54900;BME280;40801;41.924;25.562;2023-03-14T14:03:39;99074.19;;;30.02;9.75
54900;BME280;40801;41.924;25.562;2023-03-14T14:06:10;99070.03;;;29.68;9.62
54900;BME280;40801;41.924;25.562;2023-03-14T14:08:41;99061.69;;;29.10;10.06